createdAt,value
2024-05-09T00:00:35.482Z,2.78
2024-05-09T00:03:07.313Z,3.10
2024-05-09T00:05:34.179Z,2.88
2024-05-09T00:08:01.142Z,2.97
2024-05-09T00:10:35.371Z,3.00
2024-05-09T00:13:04.817Z,3.10
2024-05-09T00:15:31.504Z,2.70
2024-05-09T00:17:58.261Z,3.67
2024-05-09T00:20:33.064Z,2.92
2024-05-09T00:23:06.707Z,3.13
2024-05-09T00:25:33.423Z,3.42
2024-05-09T00:28:00.041Z,3.65
2024-05-09T00:30:33.606Z,3.25
2024-05-09T00:33:02.854Z,2.88
2024-05-09T00:35:29.783Z,3.17
2024-05-09T00:37:56.520Z,3.08
2024-05-09T00:40:31.120Z,3.42
2024-05-09T00:43:05.804Z,3.10
2024-05-09T00:45:33.124Z,3.10
2024-05-09T00:48:01.749Z,3.13
2024-05-09T00:50:35.676Z,2.90
2024-05-09T00:53:07.098Z,3.13
2024-05-09T00:55:35.291Z,2.92
2024-05-09T00:58:02.646Z,2.72
2024-05-09T01:00:36.035Z,3.20
2024-05-09T01:03:06.432Z,2.92
2024-05-09T01:05:34.332Z,3.08
2024-05-09T01:08:01.409Z,2.97
2024-05-09T01:10:33.863Z,3.08
2024-05-09T01:13:05.992Z,2.80
2024-05-09T01:15:33.289Z,2.75
2024-05-09T01:18:11.794Z,3.28
2024-05-09T01:20:42.869Z,3.08
2024-05-09T01:23:12.351Z,3.25
2024-05-09T01:25:39.687Z,3.42
2024-05-09T01:28:06.676Z,3.20
2024-05-09T01:30:35.918Z,3.45
2024-05-09T01:33:06.157Z,3.75
2024-05-09T01:35:34.477Z,2.85
2024-05-09T01:38:01.210Z,3.53
2024-05-09T01:40:36.410Z,3.15
2024-05-09T01:43:05.782Z,2.88
2024-05-09T01:45:32.360Z,3.03
2024-05-09T01:47:59.174Z,3.40
2024-05-09T01:50:37.138Z,3.17
2024-05-09T01:53:07.530Z,3.20
2024-05-09T01:55:34.122Z,3.58
2024-05-09T01:58:00.656Z,3.53
2024-05-09T02:00:36.292Z,3.83
2024-05-09T02:03:09.672Z,3.13
2024-05-09T02:05:36.741Z,3.35
2024-05-09T02:08:04.174Z,3.22
2024-05-09T02:10:32.946Z,3.42
2024-05-09T02:13:00.016Z,3.10
2024-05-09T02:15:26.599Z,2.72
2024-05-09T02:17:53.417Z,3.50
2024-05-09T02:20:30.059Z,2.70
2024-05-09T02:23:03.639Z,3.22
2024-05-09T02:25:30.624Z,2.90
2024-05-09T02:27:57.175Z,3.30
2024-05-09T02:30:31.049Z,3.35
2024-05-09T02:33:05.699Z,3.50
2024-05-09T02:35:32.385Z,2.88
2024-05-09T02:37:59.066Z,3.40
2024-05-09T02:40:33.629Z,3.63
2024-05-09T02:43:04.070Z,3.15
2024-05-09T02:45:30.674Z,2.83
2024-05-09T02:47:57.551Z,3.50
2024-05-09T02:50:33.083Z,3.63
2024-05-09T02:53:04.379Z,2.65
2024-05-09T02:55:31.076Z,3.15
2024-05-09T02:57:57.656Z,2.83
2024-05-09T03:00:30.083Z,2.75
2024-05-09T03:03:04.920Z,3.42
2024-05-09T03:05:31.756Z,2.92
2024-05-09T03:07:58.398Z,2.60
2024-05-09T03:10:28.640Z,3.30
2024-05-09T03:12:55.891Z,3.00
2024-05-09T03:15:22.636Z,3.10
2024-05-09T03:17:49.479Z,2.78
2024-05-09T03:20:23.306Z,3.20
2024-05-09T03:22:52.769Z,2.60
2024-05-09T03:25:20.629Z,2.55
2024-05-09T03:27:47.167Z,2.78
2024-05-09T03:30:26.017Z,2.90
2024-05-09T03:33:00.565Z,2.78
2024-05-09T03:35:27.325Z,2.85
2024-05-09T03:37:53.891Z,2.92
2024-05-09T03:40:23.843Z,3.40
2024-05-09T03:42:53.089Z,2.58
2024-05-09T03:45:19.627Z,2.95
2024-05-09T03:47:46.399Z,3.20
2024-05-09T03:50:21.926Z,2.97
2024-05-09T03:52:52.502Z,2.80
2024-05-09T03:55:19.144Z,3.03
2024-05-09T03:57:45.667Z,3.08
2024-05-09T04:00:18.137Z,2.60
2024-05-09T04:02:52.720Z,3.08
2024-05-09T04:05:19.489Z,2.95
2024-05-09T04:07:46.220Z,2.45
2024-05-09T04:10:21.065Z,2.97
2024-05-09T04:12:54.514Z,3.10
2024-05-09T04:15:21.193Z,2.63
2024-05-09T04:17:51.386Z,2.72
2024-05-09T04:20:29.089Z,3.08
2024-05-09T04:23:03.556Z,2.70
2024-05-09T04:25:31.749Z,3.10
2024-05-09T04:27:58.232Z,3.10
2024-05-09T04:30:34.411Z,2.50
2024-05-09T04:33:05.611Z,3.47
2024-05-09T04:35:32.522Z,2.60
2024-05-09T04:37:59.151Z,3.00
2024-05-09T04:40:32.985Z,3.65
2024-05-09T04:43:02.342Z,3.22
2024-05-09T04:45:28.903Z,2.85
2024-05-09T04:47:55.647Z,3.13
2024-05-09T04:50:30.156Z,3.22
2024-05-09T04:53:02.955Z,3.30
2024-05-09T04:55:29.607Z,3.10
2024-05-09T04:57:56.121Z,3.05
2024-05-09T05:00:32.197Z,3.00
2024-05-09T05:03:06.800Z,3.30
2024-05-09T05:05:34.437Z,2.72
2024-05-09T05:08:01.177Z,3.00
2024-05-09T05:10:33.839Z,2.90
2024-05-09T05:13:22.638Z,3.33
2024-05-09T05:15:52.435Z,3.40
2024-05-09T05:18:19.414Z,2.95
2024-05-09T05:20:47.225Z,3.30
2024-05-09T05:23:15.908Z,3.10
2024-05-09T05:25:42.933Z,3.13
2024-05-09T05:28:09.933Z,3.45
2024-05-09T05:30:40.901Z,3.72
2024-05-09T05:33:10.762Z,3.58
2024-05-09T05:35:37.433Z,3.85
2024-05-09T05:38:04.812Z,4.00
2024-05-09T05:40:36.467Z,3.85
2024-05-09T05:43:05.492Z,4.03
2024-05-09T05:45:31.985Z,5.20
2024-05-09T05:47:58.665Z,4.40
2024-05-09T05:50:32.615Z,4.35
2024-05-09T05:53:03.188Z,4.00
2024-05-09T05:55:29.839Z,4.22
2024-05-09T05:57:56.372Z,4.53
2024-05-09T06:00:29.812Z,5.00
2024-05-09T06:03:04.368Z,3.97
2024-05-09T06:05:31.068Z,3.85
2024-05-09T06:07:57.653Z,4.22
2024-05-09T06:10:29.678Z,3.80
2024-05-09T06:13:01.486Z,4.65
2024-05-09T06:15:27.983Z,4.00
2024-05-09T06:17:54.731Z,4.05
2024-05-09T06:20:31.103Z,4.30
2024-05-09T06:23:02.901Z,3.90
2024-05-09T06:25:29.518Z,4.07
2024-05-09T06:27:55.994Z,4.55
2024-05-09T06:30:30.036Z,3.92
2024-05-09T06:33:05.197Z,4.03
2024-05-09T06:35:32.439Z,4.07
2024-05-09T06:37:59.122Z,4.88
2024-05-09T06:40:34.082Z,3.72
2024-05-09T06:43:04.313Z,3.80
2024-05-09T06:45:30.838Z,3.63
2024-05-09T06:47:57.851Z,3.55
2024-05-09T06:50:28.270Z,3.33
2024-05-09T06:52:58.260Z,3.30
2024-05-09T06:55:24.813Z,3.25
2024-05-09T06:57:51.318Z,3.65
2024-05-09T07:00:26.798Z,3.45
2024-05-09T07:02:57.643Z,3.58
2024-05-09T07:05:25.572Z,3.50
2024-05-09T07:07:52.461Z,3.28
2024-05-09T07:10:25.797Z,3.28
2024-05-09T07:12:58.971Z,3.25
2024-05-09T07:15:25.470Z,3.58
2024-05-09T07:17:52.094Z,3.33
2024-05-09T07:20:23.807Z,3.42
2024-05-09T07:22:59.164Z,3.40
2024-05-09T07:25:25.727Z,3.40
2024-05-09T07:27:52.307Z,3.08
2024-05-09T07:30:27.392Z,2.88
2024-05-09T07:32:59.535Z,3.30
2024-05-09T07:35:26.363Z,3.15
2024-05-09T07:37:53.177Z,3.33
2024-05-09T07:40:28.590Z,3.42
2024-05-09T07:43:03.282Z,3.33
2024-05-09T07:45:45.892Z,3.22
2024-05-09T07:53:38.361Z,3.35
2024-05-09T07:56:05.709Z,3.10
2024-05-09T07:58:32.359Z,3.05
2024-05-09T08:00:58.983Z,3.35
2024-05-09T08:03:25.651Z,3.33
2024-05-09T08:05:52.321Z,3.15
2024-05-09T08:08:18.884Z,2.97
2024-05-09T08:10:46.112Z,3.28
2024-05-09T08:13:12.819Z,3.15
2024-05-09T08:15:39.501Z,3.13
2024-05-09T08:18:09.802Z,2.97
2024-05-09T08:20:40.330Z,2.97
2024-05-09T08:23:07.399Z,3.70
2024-05-09T08:25:33.909Z,2.95
2024-05-09T08:28:00.563Z,3.03
2024-05-09T08:30:33.525Z,2.88
2024-05-09T08:33:04.331Z,3.15
2024-05-09T08:35:31.277Z,2.58
2024-05-09T08:37:58.017Z,2.60
2024-05-09T08:40:31.089Z,2.95
2024-05-09T08:43:02.613Z,2.75
2024-05-09T08:45:29.589Z,2.78
2024-05-09T08:47:56.670Z,2.50
2024-05-09T08:50:32.163Z,2.70
2024-05-09T08:53:05.191Z,2.50
2024-05-09T08:55:31.825Z,2.63
2024-05-09T08:57:59.212Z,2.65
2024-05-09T09:00:35.599Z,2.00
2024-05-09T09:03:05.732Z,2.60
2024-05-09T09:05:33.571Z,2.17
2024-05-09T09:08:00.244Z,2.53
2024-05-09T09:10:32.186Z,2.10
2024-05-09T09:13:05.068Z,2.42
2024-05-09T09:15:32.465Z,2.70
2024-05-09T09:18:00.731Z,2.30
2024-05-09T09:20:35.348Z,2.30
2024-05-09T09:23:03.398Z,2.50
2024-05-09T09:25:30.079Z,2.40
2024-05-09T09:27:57.852Z,2.30
2024-05-09T09:30:34.667Z,2.50
2024-05-09T09:33:04.336Z,2.00
2024-05-09T09:35:31.039Z,2.97
2024-05-09T09:38:02.001Z,2.60
2024-05-09T09:40:42.885Z,2.45
2024-05-09T09:43:21.949Z,2.45
2024-05-09T09:45:53.460Z,2.15
2024-05-09T09:48:21.537Z,2.30
2024-05-09T09:50:48.778Z,2.28
2024-05-09T09:53:16.126Z,2.00
2024-05-09T09:55:43.152Z,2.35
2024-05-09T09:58:13.956Z,2.03
2024-05-09T10:00:41.270Z,2.30
2024-05-09T10:03:08.358Z,2.30
2024-05-09T10:05:35.261Z,2.30
2024-05-09T10:08:06.832Z,2.25
2024-05-09T10:10:35.885Z,2.20
2024-05-09T10:13:07.055Z,2.05
2024-05-09T10:15:48.272Z,2.17
2024-05-09T10:18:15.483Z,2.33
2024-05-09T10:20:46.054Z,2.42
2024-05-09T10:23:26.452Z,2.20
2024-05-09T10:26:04.582Z,1.98
2024-05-09T10:28:33.153Z,2.20
2024-05-09T10:31:13.335Z,1.92
2024-05-09T10:33:45.116Z,3.00
2024-05-09T10:36:19.538Z,2.63
2024-05-09T10:38:46.068Z,2.88
2024-05-09T10:41:12.911Z,2.10
2024-05-09T10:43:40.863Z,2.20
2024-05-09T10:46:07.984Z,3.28
2024-05-09T10:48:35.959Z,2.15
2024-05-09T10:51:02.703Z,2.10
2024-05-09T10:53:29.367Z,2.22
2024-05-09T10:55:59.500Z,1.83
2024-05-09T10:58:26.659Z,2.10
2024-05-09T11:00:57.245Z,2.15
2024-05-09T11:03:25.043Z,2.00
2024-05-09T11:05:52.483Z,2.10
2024-05-09T11:08:22.069Z,1.90
2024-05-09T11:10:53.061Z,2.00
2024-05-09T11:13:34.106Z,2.78
2024-05-09T11:16:01.003Z,2.00
2024-05-09T11:18:32.327Z,2.53
2024-05-09T11:21:03.193Z,2.00
2024-05-09T11:23:30.499Z,2.10
2024-05-09T11:25:58.446Z,2.13
2024-05-09T11:28:26.987Z,2.22
2024-05-09T11:31:05.170Z,1.98
2024-05-09T11:33:31.922Z,2.08
2024-05-09T11:35:58.555Z,1.85
2024-05-09T11:38:25.047Z,2.83
2024-05-09T11:40:51.533Z,2.33
2024-05-09T11:43:18.135Z,2.10
2024-05-09T11:45:44.710Z,1.90
2024-05-09T11:48:11.287Z,1.88
2024-05-09T11:50:38.661Z,2.50
2024-05-09T11:53:05.177Z,2.70
2024-05-09T11:55:36.095Z,2.00
2024-05-09T11:58:03.186Z,2.17
2024-05-09T12:00:36.555Z,1.92
2024-05-09T12:03:05.631Z,2.05
2024-05-09T12:05:33.158Z,2.40
2024-05-09T12:08:00.636Z,2.08
2024-05-09T12:10:33.116Z,1.75
2024-05-09T12:13:02.684Z,1.73
2024-05-09T12:15:29.826Z,1.95
2024-05-09T12:17:58.926Z,1.50
2024-05-09T12:20:35.308Z,1.83
2024-05-09T12:23:04.992Z,2.13
2024-05-09T12:25:31.531Z,2.08
2024-05-09T12:27:58.392Z,2.22
2024-05-09T12:30:33.154Z,1.83
2024-05-09T12:33:04.779Z,1.85
2024-05-09T12:35:31.474Z,1.85
2024-05-09T12:37:58.002Z,2.05
2024-05-09T12:40:34.182Z,1.80
2024-05-09T12:43:04.375Z,1.80
2024-05-09T12:45:31.364Z,1.67
2024-05-09T12:47:58.143Z,1.90
2024-05-09T12:50:31.280Z,1.70
2024-05-09T12:52:59.904Z,1.88
2024-05-09T12:55:28.135Z,1.92
2024-05-09T12:57:55.050Z,1.98
2024-05-09T13:00:28.162Z,1.80
2024-05-09T13:03:00.292Z,2.40
2024-05-09T13:05:27.255Z,1.80
2024-05-09T13:07:53.936Z,1.83
2024-05-09T13:10:28.958Z,1.67
2024-05-09T13:12:59.203Z,1.67
2024-05-09T13:15:25.817Z,1.70
2024-05-09T13:17:52.420Z,2.03
2024-05-09T13:20:26.434Z,1.60
2024-05-09T13:23:00.882Z,1.90
2024-05-09T13:25:27.413Z,1.88
2024-05-09T13:27:54.181Z,1.70
2024-05-09T13:30:29.278Z,1.88
2024-05-09T13:33:04.755Z,1.73
2024-05-09T13:35:32.041Z,2.20
2024-05-09T13:37:58.631Z,1.85
2024-05-09T13:40:32.230Z,2.10
2024-05-09T13:43:01.884Z,1.60
2024-05-09T13:45:28.623Z,1.55
2024-05-09T13:47:55.361Z,1.60
2024-05-09T13:50:30.953Z,2.00
2024-05-09T13:53:01.588Z,1.95
2024-05-09T13:55:28.233Z,1.50
2024-05-09T13:57:55.199Z,1.60
2024-05-09T14:00:33.206Z,1.77
2024-05-09T14:03:08.376Z,1.75
2024-05-09T14:05:35.283Z,1.30
2024-05-09T14:08:01.936Z,1.60
2024-05-09T14:10:31.263Z,1.77
2024-05-09T14:12:58.919Z,1.42
2024-05-09T14:15:25.465Z,2.58
2024-05-09T14:20:29.892Z,1.70
2024-05-09T14:22:58.854Z,1.63
2024-05-09T14:25:28.185Z,1.67
2024-05-09T14:27:54.928Z,1.40
2024-05-09T14:30:30.448Z,1.73
2024-05-09T14:33:03.154Z,1.20
2024-05-09T14:35:30.010Z,1.73
2024-05-09T14:37:56.759Z,1.45
2024-05-09T14:40:35.932Z,1.70
2024-05-09T14:43:07.746Z,2.08
2024-05-09T14:45:34.524Z,1.83
2024-05-09T14:48:01.576Z,1.60
2024-05-09T14:50:35.135Z,1.45
2024-05-09T14:53:06.275Z,1.90
2024-05-09T14:55:35.743Z,1.50
2024-05-09T14:58:03.306Z,1.58
2024-05-09T15:00:35.588Z,1.42
2024-05-09T15:03:03.769Z,1.83
2024-05-09T15:05:34.270Z,1.50
2024-05-09T15:08:00.855Z,1.83
2024-05-09T15:10:34.258Z,1.52
2024-05-09T15:13:04.045Z,1.48
2024-05-09T15:15:31.020Z,1.60
2024-05-09T15:17:57.875Z,1.52
2024-05-09T15:20:31.661Z,1.50
2024-05-09T15:23:02.492Z,1.88
2024-05-09T15:25:29.353Z,1.63
2024-05-09T15:27:56.081Z,1.38
2024-05-09T15:32:52.367Z,1.65
2024-05-09T15:35:19.028Z,1.50
2024-05-09T15:37:48.118Z,1.42
2024-05-09T15:40:18.905Z,1.35
2024-05-09T15:42:53.240Z,1.40
2024-05-09T15:45:19.874Z,1.40
2024-05-09T15:47:46.519Z,1.73
2024-05-09T15:50:20.406Z,1.50
2024-05-09T15:52:55.292Z,1.40
2024-05-09T15:55:21.798Z,1.60
2024-05-09T15:57:48.359Z,1.30
2024-05-09T16:00:24.674Z,1.33
2024-05-09T16:02:59.862Z,1.27
2024-05-09T16:05:26.631Z,1.60
2024-05-09T16:07:53.362Z,1.95
2024-05-09T16:10:25.521Z,2.00
2024-05-09T16:12:56.183Z,1.77
2024-05-09T16:15:22.789Z,1.40
2024-05-09T16:17:49.326Z,1.33
2024-05-09T16:20:25.744Z,1.40
2024-05-09T16:22:59.871Z,1.50
2024-05-09T16:25:26.458Z,1.65
2024-05-09T16:27:53.057Z,1.45
2024-05-09T16:30:27.835Z,1.60
2024-05-09T16:33:00.734Z,1.40
2024-05-09T16:35:27.333Z,1.58
2024-05-09T16:37:54.002Z,1.48
2024-05-09T16:40:29.354Z,1.50
2024-05-09T16:43:03.651Z,1.20
2024-05-09T16:45:30.467Z,1.63
2024-05-09T16:47:57.299Z,1.50
2024-05-09T16:50:29.409Z,1.27
2024-05-09T16:52:59.450Z,1.20
2024-05-09T16:55:26.038Z,1.35
2024-05-09T16:57:52.770Z,1.40
2024-05-09T17:00:30.904Z,1.23
2024-05-09T17:03:06.031Z,1.35
2024-05-09T17:05:33.290Z,1.40
2024-05-09T17:08:01.043Z,1.10
2024-05-09T17:10:32.638Z,1.40
2024-05-09T17:13:02.112Z,1.70
2024-05-09T17:15:28.881Z,1.83
2024-05-09T17:17:55.894Z,1.50
2024-05-09T17:20:29.679Z,1.90
2024-05-09T17:23:01.646Z,1.77
2024-05-09T17:25:28.353Z,1.40
2024-05-09T17:27:55.249Z,1.50
2024-05-09T17:30:29.036Z,1.50
2024-05-09T17:33:01.813Z,1.50
2024-05-09T17:35:28.606Z,1.38
2024-05-09T17:37:55.224Z,1.90
2024-05-09T17:40:30.734Z,1.63
2024-05-09T17:43:01.093Z,1.60
2024-05-09T17:45:27.655Z,1.90
2024-05-09T17:47:54.328Z,1.75
2024-05-09T17:50:27.514Z,2.22
2024-05-09T17:53:00.585Z,1.83
2024-05-09T17:55:27.313Z,1.70
2024-05-09T17:57:53.942Z,1.80
2024-05-09T18:00:29.167Z,1.70
2024-05-09T18:03:03.830Z,1.50
2024-05-09T18:05:30.958Z,1.90
2024-05-09T18:07:57.866Z,1.70
2024-05-09T18:10:32.545Z,1.77
2024-05-09T18:13:03.281Z,1.67
2024-05-09T18:15:29.913Z,1.88
2024-05-09T18:17:56.708Z,1.58
2024-05-09T18:20:32.424Z,1.73
2024-05-09T18:23:06.939Z,1.50
2024-05-09T18:25:33.486Z,1.60
2024-05-09T18:28:01.999Z,1.60
2024-05-09T18:30:34.389Z,1.80
2024-05-09T18:33:03.319Z,2.08
2024-05-09T18:35:30.080Z,1.70
2024-05-09T18:37:56.739Z,1.98
2024-05-09T18:42:52.691Z,1.60
2024-05-09T18:45:19.243Z,2.15
2024-05-09T18:47:45.830Z,2.00
2024-05-09T18:50:17.677Z,2.50
2024-05-09T18:52:51.484Z,1.70
2024-05-09T18:55:18.089Z,1.38
2024-05-09T18:57:44.704Z,1.52
2024-05-09T19:00:22.703Z,1.65
2024-05-09T19:02:57.056Z,1.65
2024-05-09T19:05:23.897Z,1.75
2024-05-09T19:07:50.494Z,1.50
2024-05-09T19:10:22.582Z,2.00
2024-05-09T19:12:52.603Z,1.55
2024-05-09T19:15:23.226Z,1.70
2024-05-09T19:17:49.838Z,1.70
2024-05-09T19:20:24.975Z,1.50
2024-05-09T19:22:55.989Z,1.55
2024-05-09T19:25:22.486Z,1.48
2024-05-09T19:27:49.064Z,1.70
2024-05-09T19:30:25.063Z,1.60
2024-05-09T19:33:00.352Z,1.40
2024-05-09T19:35:27.052Z,1.83
2024-05-09T19:37:54.064Z,1.40
2024-05-09T19:40:28.631Z,1.70
2024-05-09T19:42:58.534Z,1.45
2024-05-09T19:45:25.156Z,1.88
2024-05-09T19:47:51.988Z,1.45
2024-05-09T19:50:26.687Z,1.90
2024-05-09T19:52:59.468Z,1.50
2024-05-09T19:55:26.066Z,1.30
2024-05-09T19:57:52.668Z,1.75
2024-05-09T20:00:26.039Z,1.63
2024-05-09T20:02:56.159Z,1.55
2024-05-09T20:05:23.305Z,1.58
2024-05-09T20:07:50.313Z,1.60
2024-05-09T20:10:23.624Z,1.58
2024-05-09T20:12:53.850Z,1.80
2024-05-09T20:15:20.441Z,1.58
2024-05-09T20:17:47.392Z,1.58
2024-05-09T20:20:24.517Z,1.70
2024-05-09T20:22:59.727Z,1.92
2024-05-09T20:25:26.298Z,1.60
2024-05-09T20:27:52.927Z,2.30
2024-05-09T20:30:28.581Z,1.40
2024-05-09T20:32:58.956Z,1.55
2024-05-09T20:35:26.430Z,1.88
2024-05-09T20:37:52.998Z,1.80
2024-05-09T20:40:26.114Z,1.60
2024-05-09T20:42:58.540Z,2.00
2024-05-09T20:45:25.119Z,1.63
2024-05-09T20:47:51.739Z,1.50
2024-05-09T20:50:27.905Z,1.42
2024-05-09T20:53:02.314Z,2.00
2024-05-09T20:55:30.134Z,1.40
2024-05-09T20:57:56.971Z,1.92
2024-05-09T21:00:30.270Z,1.80
2024-05-09T21:03:05.481Z,1.60
2024-05-09T21:05:32.439Z,1.50
2024-05-09T21:07:59.059Z,1.73
2024-05-09T21:10:27.232Z,1.90
2024-05-09T21:12:56.534Z,2.20
2024-05-09T21:15:23.110Z,2.00
2024-05-09T21:17:49.678Z,1.90
2024-05-09T21:20:20.507Z,2.33
2024-05-09T21:22:50.673Z,1.90
2024-05-09T21:25:17.264Z,2.20
2024-05-09T21:27:43.901Z,2.47
2024-05-09T21:30:16.042Z,2.45
2024-05-09T21:32:49.331Z,2.05
2024-05-09T21:35:17.355Z,1.90
2024-05-09T21:37:43.851Z,2.13
2024-05-09T21:40:13.989Z,2.00
2024-05-09T21:42:48.506Z,2.00
2024-05-09T21:45:15.111Z,1.75
2024-05-09T21:50:12.489Z,1.60
2024-05-09T21:52:41.853Z,1.50
2024-05-09T21:55:08.694Z,1.80
2024-05-09T21:57:35.369Z,1.92
2024-05-09T22:00:02.055Z,1.70
2024-05-09T22:02:28.780Z,1.90
2024-05-09T22:04:55.684Z,2.05
2024-05-09T22:07:23.494Z,2.00
2024-05-09T22:09:50.067Z,2.30
2024-05-09T22:12:16.597Z,2.00
2024-05-09T22:14:43.194Z,1.80
2024-05-09T22:17:09.897Z,1.67
2024-05-09T22:19:36.437Z,1.70
2024-05-09T22:22:03.117Z,1.58
2024-05-09T22:24:29.681Z,1.88
2024-05-09T22:26:56.189Z,2.28
2024-05-09T22:29:22.671Z,2.67
2024-05-09T22:31:49.141Z,2.40
2024-05-09T22:34:15.783Z,2.70
2024-05-09T22:36:42.409Z,2.40
2024-05-09T22:39:09.569Z,2.40
2024-05-09T22:41:36.072Z,2.30
2024-05-09T22:44:02.644Z,1.88
2024-05-09T22:46:29.264Z,2.35
2024-05-09T22:48:56.015Z,2.25
2024-05-09T22:51:22.570Z,2.58
2024-05-09T22:53:49.067Z,3.00
2024-05-09T22:56:26.346Z,2.58
2024-05-09T22:58:52.858Z,2.30
2024-05-09T23:01:19.471Z,2.22
2024-05-09T23:03:47.239Z,2.30
2024-05-09T23:06:14.268Z,2.10
2024-05-09T23:08:40.961Z,2.35
2024-05-09T23:11:07.716Z,2.42
2024-05-09T23:13:34.879Z,2.08
2024-05-09T23:16:01.499Z,1.98
2024-05-09T23:18:28.086Z,1.80
2024-05-09T23:20:54.583Z,1.70
2024-05-09T23:23:21.331Z,1.92
2024-05-09T23:25:49.331Z,1.58
2024-05-09T23:28:15.976Z,1.67
2024-05-09T23:30:42.740Z,1.65
2024-05-09T23:33:12.398Z,1.75
2024-05-09T23:35:41.422Z,1.63
2024-05-09T23:38:07.904Z,1.88
2024-05-09T23:40:39.791Z,2.00
2024-05-09T23:43:09.311Z,2.00
2024-05-09T23:45:36.262Z,1.85
2024-05-09T23:48:03.600Z,1.52
2024-05-09T23:50:35.932Z,1.90
2024-05-09T23:53:05.633Z,1.58
2024-05-09T23:55:32.801Z,1.63
2024-05-09T23:58:02.618Z,1.60
